Terminal Aerodrome Forecast
Issued by NWS Twin Cities, MN

Home | Current Version | Previous Version | Text Only | Print | Product List | Glossary On
Versions: 1 2 3 4 5 6 7 8 9 10 11 12 13 14 15 16 17 18 19 20 21 22 23 24 25 26 27 28 29 30
661
FTUS43 KMPX 290855 AAA
TAFMSP
TAF AMD
KMSP 290855Z 2909/3012 25004KT P6SM VCSH BKN040 OVC100
     FM291200 28007KT P6SM VCSH SCT006 OVC012
     FM291500 28008KT P6SM BKN025 OVC045
     FM291700 28011G17KT P6SM SCT035 BKN060
     FM292300 27008KT P6SM SCT200=

USA.gov is the U.S. government's official web portal to all federal, state and local government web resources and services.